Time;durP1;ratioP1;P1;durP2;ratioP2;P2;SDS_P1;SDS_P2;PMS_P1;PMS_P2;Temp;Humidity;BMP_temperature;BMP_pressure;BME280_temperature;BME280_humidity;BME280_pressure;Samples;Min_cycle;Max_cycle;Signal;HPM_P1;HPM_P2
2022/02/02 00:02:30;;;;;;;13.70;2.57;;;;;9.00;101274.00;;;;9608811;30;20260;-81
2022/02/02 00:07:48;;;;;;;14.53;2.97;;;;;8.90;101285.00;;;;9607515;30;20280;-80
2022/02/02 00:12:58;;;;;;;12.37;2.60;;;;;8.90;101298.00;;;;9607137;30;20267;-81
2022/02/02 00:23:24;;;;;;;11.17;2.53;;;;;8.90;101298.00;;;;9588390;30;20241;-80
2022/02/02 00:28:30;;;;;;;9.03;2.70;;;;;9.00;101297.00;;;;9601892;30;20229;-81
2022/02/02 00:33:39;;;;;;;10.33;2.23;;;;;9.00;101293.00;;;;9573235;31;20212;-81
2022/02/02 00:38:41;;;;;;;13.27;2.93;;;;;9.10;101311.00;;;;9573012;31;20198;-80
2022/02/02 00:43:46;;;;;;;11.27;3.03;;;;;9.10;101314.00;;;;9607608;30;20242;-81
2022/02/02 00:48:59;;;;;;;15.90;2.87;;;;;9.00;101281.00;;;;9656251;30;20279;-81
2022/02/02 00:54:03;;;;;;;14.20;2.57;;;;;9.10;101314.00;;;;9613388;30;20206;-81
2022/02/02 00:59:04;;;;;;;13.57;2.90;;;;;9.00;101327.00;;;;9586046;30;20248;-81
2022/02/02 01:04:07;;;;;;;11.87;2.10;;;;;9.00;101323.00;;;;9586468;30;20264;-81
2022/02/02 01:19:33;;;;;;;7.90;2.77;;;;;9.00;101316.00;;;;9621335;30;20304;-81
2022/02/02 01:29:58;;;;;;;20.67;3.70;;;;;9.00;101328.00;;;;9633427;30;20224;-81
2022/02/02 01:35:04;;;;;;;8.47;2.10;;;;;9.00;101324.00;;;;9604503;30;20260;-81
2022/02/02 01:40:14;;;;;;;7.23;2.10;;;;;9.00;101320.00;;;;9618619;30;20233;-79
2022/02/02 01:45:21;;;;;;;6.97;2.10;;;;;9.10;101339.00;;;;9603884;30;20627;-80
2022/02/02 01:50:34;;;;;;;11.83;2.60;;;;;9.10;101336.00;;;;9596914;30;20206;-80
2022/02/02 01:55:38;;;;;;;6.90;2.03;;;;;9.00;101333.00;;;;9596260;30;20277;-80
2022/02/02 02:00:40;;;;;;;11.10;2.60;;;;;8.90;101339.00;;;;9598134;30;20206;-81
2022/02/02 02:05:42;;;;;;;8.97;2.47;;;;;8.80;101326.00;;;;9581713;30;20229;-77
2022/02/02 02:10:45;;;;;;;14.40;2.60;;;;;8.90;101334.00;;;;9595939;30;20253;-78
2022/02/02 02:15:47;;;;;;;14.43;2.57;;;;;8.90;101329.00;;;;9614350;30;20249;-79
2022/02/02 02:27:28;;;;;;;7.13;2.27;;;;;8.70;101324.00;;;;9631059;30;20227;-78
2022/02/02 02:33:08;;;;;;;13.20;2.83;;;;;8.70;101339.00;;;;9630601;30;20611;-78
2022/02/02 02:59:31;;;;;;;7.33;2.47;;;;;8.80;101340.00;;;;9631450;30;20269;-78
2022/02/02 03:53:03;;;;;;;8.40;2.70;;;;;8.50;101350.00;;;;9602190;30;20267;-79
2022/02/02 04:13:57;;;;;;;14.23;3.17;;;;;7.90;101361.00;;;;9636470;30;20197;-79
2022/02/02 04:56:32;;;;;;;11.30;3.07;;;;;8.20;101373.00;;;;9633832;30;20225;-79
2022/02/02 05:17:38;;;;;;;12.30;2.67;;;;;8.30;101387.00;;;;9598613;30;20364;-78
2022/02/02 05:49:36;;;;;;;5.30;2.03;;;;;8.40;101387.00;;;;9597110;30;20765;-80
2022/02/02 05:54:38;;;;;;;5.63;2.13;;;;;8.50;101390.00;;;;9612730;30;20205;-79
2022/02/02 05:59:42;;;;;;;9.20;3.13;;;;;8.50;101394.00;;;;9612134;30;20205;-79
2022/02/02 06:04:47;;;;;;;10.20;2.70;;;;;8.50;101393.00;;;;9619858;30;20233;-80
2022/02/02 06:09:50;;;;;;;8.60;2.70;;;;;8.60;101410.00;;;;9621364;30;20303;-80
2022/02/02 06:14:52;;;;;;;7.50;3.60;;;;;8.60;101422.00;;;;9615798;30;20292;-80
2022/02/02 06:19:55;;;;;;;10.80;2.67;;;;;8.70;101428.00;;;;9588825;30;20236;-80
2022/02/02 06:25:26;;;;;;;9.33;2.90;;;;;8.60;101436.00;;;;9591091;30;20284;-80
2022/02/02 06:30:29;;;;;;;14.50;3.07;;;;;8.70;101441.00;;;;9610560;30;20579;-79
2022/02/02 06:35:37;;;;;;;7.00;2.80;;;;;8.70;101437.00;;;;9613888;30;20645;-79
2022/02/02 06:40:40;;;;;;;11.00;3.53;;;;;8.70;101447.00;;;;9606929;30;20260;-80
2022/02/02 06:45:43;;;;;;;5.73;2.30;;;;;8.60;101450.00;;;;9628913;30;20209;-80
2022/02/02 06:50:55;;;;;;;6.80;2.47;;;;;8.60;101450.00;;;;9577849;30;20214;-80
2022/02/02 07:06:51;;;;;;;8.50;3.70;;;;;8.60;101477.00;;;;9607628;30;20740;-80
2022/02/02 07:12:15;;;;;;;10.40;4.10;;;;;8.70;101487.00;;;;9619132;30;20271;-80
2022/02/02 07:18:14;;;;;;;10.83;4.00;;;;;8.60;101491.00;;;;9595845;30;20213;-80
2022/02/02 07:28:11;;;;;;;9.27;4.87;;;;;8.70;101495.00;;;;9587042;30;20227;-79
2022/02/02 07:33:21;;;;;;;13.53;4.93;;;;;8.70;101491.00;;;;9586960;30;20221;-79
2022/02/02 07:38:31;;;;;;;12.83;5.03;;;;;8.70;101496.00;;;;9608561;30;20555;-80
2022/02/02 07:43:42;;;;;;;12.70;5.30;;;;;8.60;101506.00;;;;9624845;30;20713;-80
2022/02/02 07:48:47;;;;;;;13.73;5.47;;;;;8.70;101520.00;;;;9616952;30;20757;-80
2022/02/02 07:53:54;;;;;;;12.47;5.03;;;;;8.70;101509.00;;;;9618867;30;20743;-80
2022/02/02 08:04:19;;;;;;;15.03;4.10;;;;;8.90;101514.00;;;;9611866;30;20250;-80
2022/02/02 08:09:51;;;;;;;13.97;4.90;;;;;9.10;101516.00;;;;9599555;30;20221;-80
2022/02/02 08:14:52;;;;;;;13.37;3.80;;;;;9.20;101513.00;;;;9610153;30;20292;-81
2022/02/02 08:19:54;;;;;;;17.03;4.93;;;;;9.10;101513.00;;;;9607285;30;20201;-80
2022/02/02 08:24:58;;;;;;;12.47;4.27;;;;;9.20;101509.00;;;;9635430;30;20531;-80
2022/02/02 08:30:01;;;;;;;13.53;4.23;;;;;9.20;101515.00;;;;9621287;30;20231;-80
2022/02/02 08:35:03;;;;;;;8.00;3.87;;;;;9.40;101520.00;;;;9620883;30;20252;-80
2022/02/02 08:40:53;;;;;;;12.93;3.77;;;;;9.40;101547.00;;;;9621382;30;20205;-80
2022/02/02 08:45:33;;;;;;;9.70;3.03;;;;;9.30;101558.00;;;;9611272;30;20294;-81
2022/02/02 08:50:48;;;;;;;10.93;4.37;;;;;9.30;101562.00;;;;9614009;30;20231;-80
2022/02/02 09:00:58;;;;;;;9.47;3.60;;;;;9.30;101573.00;;;;9614430;30;20236;-81
2022/02/02 09:06:01;;;;;;;15.17;4.20;;;;;9.30;101571.00;;;;9581090;30;20233;-81
2022/02/02 09:37:22;;;;;;;19.10;4.80;;;;;10.40;101579.00;;;;9630029;30;20712;-81
2022/02/02 09:42:27;;;;;;;8.50;3.43;;;;;10.30;101583.00;;;;9613259;30;20224;-81
2022/02/02 09:47:40;;;;;;;11.90;3.83;;;;;10.30;101580.00;;;;9600178;30;20272;-81
2022/02/02 09:52:50;;;;;;;11.27;3.83;;;;;10.30;101591.00;;;;9618266;30;20295;-80
2022/02/02 10:09:15;;;;;;;17.37;4.40;;;;;10.40;101615.00;;;;9601057;30;20240;-80
2022/02/02 10:14:15;;;;;;;13.47;3.67;;;;;10.40;101609.00;;;;9601763;30;20717;-80
2022/02/02 10:19:20;;;;;;;17.53;3.60;;;;;10.30;101619.00;;;;9602113;30;20209;-80
2022/02/02 10:24:47;;;;;;;17.00;4.10;;;;;10.50;101620.00;;;;9600173;30;20213;-80
2022/02/02 10:29:50;;;;;;;11.83;3.97;;;;;10.80;101625.00;;;;9613871;30;20648;-79
2022/02/02 10:34:52;;;;;;;16.47;3.80;;;;;10.70;101635.00;;;;9590701;30;20834;-81
2022/02/02 10:39:53;;;;;;;9.73;2.87;;;;;10.90;101628.00;;;;9606489;30;20217;-80
2022/02/02 10:44:59;;;;;;;13.37;3.73;;;;;10.70;101644.00;;;;9605168;30;20225;-80
2022/02/02 10:50:47;;;;;;;13.20;3.63;;;;;10.80;101647.00;;;;9613632;30;20225;-81
2022/02/02 11:01:07;;;;;;;8.60;2.80;;;;;10.90;101639.00;;;;9614838;30;20292;-81
2022/02/02 11:11:43;;;;;;;11.20;2.27;;;;;10.90;101649.00;;;;9606160;30;20217;-81
2022/02/02 11:16:50;;;;;;;12.17;2.53;;;;;10.80;101662.00;;;;9625160;30;20212;-81
2022/02/02 11:21:52;;;;;;;9.73;2.60;;;;;10.90;101645.00;;;;9609602;30;20632;-81
2022/02/02 11:27:54;;;;;;;14.03;3.53;;;;;10.80;101657.00;;;;9610405;30;20201;-80
2022/02/02 11:33:00;;;;;;;10.93;2.57;;;;;10.60;101652.00;;;;9609595;30;20275;-80
2022/02/02 11:38:16;;;;;;;11.77;2.57;;;;;10.30;101669.00;;;;9624379;30;20209;-81
2022/02/02 11:48:55;;;;;;;5.73;2.70;;;;;10.40;101649.00;;;;9621577;30;20213;-81
2022/02/02 11:54:01;;;;;;;9.50;2.93;;;;;10.70;101640.00;;;;9622097;30;20252;-80
2022/02/02 12:05:12;;;;;;;7.40;2.70;;;;;10.60;101623.00;;;;9621876;30;20309;-81
2022/02/02 12:10:21;;;;;;;10.57;3.73;;;;;10.40;101620.00;;;;9611959;30;20260;-81
2022/02/02 12:27:45;;;;;;;9.57;3.67;;;;;10.30;101613.00;;;;9587388;31;20209;-82
2022/02/02 12:27:53;;;;;;;12.30;4.70;;;;;10.20;101628.00;;;;9606712;30;20934;-82
2022/02/02 12:48:06;;;;;;;7.43;4.03;;;;;10.20;101613.00;;;;9622227;30;20209;-82
2022/02/02 12:58:36;;;;;;;7.73;4.90;;;;;10.50;101621.00;;;;9603909;30;20267;-81
2022/02/02 13:03:42;;;;;;;9.03;4.47;;;;;10.50;101615.00;;;;9617886;30;20225;-81
2022/02/02 13:08:46;;;;;;;5.10;4.60;;;;;10.80;101609.00;;;;9597656;30;20244;-81
2022/02/02 13:13:49;;;;;;;11.17;5.67;;;;;10.90;101613.00;;;;9615530;30;20285;-81
2022/02/02 13:18:55;;;;;;;7.53;4.60;;;;;10.90;101626.00;;;;9628619;30;20245;-81
2022/02/02 13:24:18;;;;;;;4.10;3.67;;;;;10.80;101621.00;;;;9604054;30;20207;-80
2022/02/02 13:55:38;;;;;;;8.80;4.80;;;;;10.50;101645.00;;;;9605193;30;20204;-81
2022/02/02 14:00:55;;;;;;;5.20;4.40;;;;;10.40;101658.00;;;;9604607;30;20241;-82
2022/02/02 14:06:18;;;;;;;5.00;4.50;;;;;10.30;101661.00;;;;9575223;30;20255;-82
2022/02/02 14:32:24;;;;;;;6.83;5.07;;;;;10.30;101676.00;;;;9606097;30;20256;-82
2022/02/02 14:37:43;;;;;;;6.47;5.77;;;;;10.20;101683.00;;;;9618153;30;20213;-82
2022/02/02 14:42:54;;;;;;;7.03;6.33;;;;;10.10;101680.00;;;;9618877;30;20205;-82
2022/02/02 14:48:05;;;;;;;6.80;6.10;;;;;10.00;101688.00;;;;9587757;30;20280;-82
2022/02/02 15:10:05;;;;;;;7.43;5.60;;;;;9.90;101692.00;;;;9631370;30;20213;-82
2022/02/02 15:31:36;;;;;;;7.90;6.93;;;;;9.70;101705.00;;;;9600703;30;20281;-81
2022/02/02 16:03:12;;;;;;;9.67;7.97;;;;;9.40;101691.00;;;;9618789;30;20229;-81
2022/02/02 16:08:19;;;;;;;9.90;8.43;;;;;9.40;101688.00;;;;9621897;30;20404;-80
2022/02/02 16:13:29;;;;;;;12.07;8.93;;;;;9.40;101681.00;;;;9590227;30;20280;-80
2022/02/02 16:18:37;;;;;;;8.90;7.53;;;;;9.40;101684.00;;;;9615245;30;20253;-81
2022/02/02 16:39:49;;;;;;;9.30;7.60;;;;;9.20;101677.00;;;;9588574;30;20236;-82
2022/02/02 16:44:51;;;;;;;10.07;7.73;;;;;9.20;101676.00;;;;9609148;30;20236;-81
2022/02/02 16:49:53;;;;;;;11.17;7.47;;;;;9.20;101679.00;;;;9594814;30;20210;-81
2022/02/02 16:54:59;;;;;;;11.23;8.23;;;;;9.20;101676.00;;;;9581246;30;20240;-81
2022/02/02 17:32:00;;;;;;;24.23;15.07;;;;;9.10;101673.00;;;;9618880;30;20252;-84
2022/02/02 17:37:44;;;;;;;22.33;16.13;;;;;9.10;101694.00;;;;9616737;30;20312;-84
2022/02/02 18:19:50;;;;;;;27.37;19.83;;;;;9.10;101696.00;;;;9620363;30;20213;-83
2022/02/02 18:25:02;;;;;;;27.53;19.57;;;;;9.00;101714.00;;;;9606069;30;20279;-83
2022/02/02 18:35:34;;;;;;;25.73;18.20;;;;;9.00;101707.00;;;;9590852;30;20299;-83
2022/02/02 18:57:32;;;;;;;25.30;16.07;;;;;8.80;101693.00;;;;9632711;30;20204;-84
2022/02/02 19:55:33;;;;;;;29.90;14.80;;;;;8.90;101714.00;;;;9638732;30;20240;-83
2022/02/02 20:11:09;;;;;;;18.43;13.00;;;;;8.80;101701.00;;;;9638137;30;20232;-83
2022/02/02 20:16:11;;;;;;;17.67;13.83;;;;;8.90;101702.00;;;;9603676;30;20241;-83
2022/02/02 20:21:16;;;;;;;21.30;14.30;;;;;8.90;101707.00;;;;9602975;30;20206;-83
2022/02/02 20:26:22;;;;;;;21.87;16.03;;;;;8.90;101699.00;;;;9602385;30;20217;-84
2022/02/02 20:31:24;;;;;;;26.50;18.70;;;;;8.90;101703.00;;;;9603080;30;20236;-84
2022/02/02 20:36:26;;;;;;;29.77;20.03;;;;;8.90;101705.00;;;;9602415;30;20763;-83
2022/02/02 20:41:28;;;;;;;34.33;21.10;;;;;8.90;101696.00;;;;9587741;31;20234;-84
2022/02/02 21:18:15;;;;;;;48.43;27.43;;;;;8.90;101692.00;;;;9621395;30;20225;-84
2022/02/02 21:28:23;;;;;;;50.37;31.10;;;;;9.00;101701.00;;;;9621000;30;20217;-84
2022/02/02 21:33:26;;;;;;;51.13;29.33;;;;;9.00;101718.00;;;;9608165;30;20753;-83
2022/02/02 21:38:34;;;;;;;48.87;30.47;;;;;9.00;101710.00;;;;9607835;30;20240;-84
2022/02/02 21:43:36;;;;;;;47.40;27.70;;;;;9.00;101709.00;;;;9608190;30;20213;-84
2022/02/02 21:48:41;;;;;;;45.57;27.77;;;;;9.00;101713.00;;;;9605968;30;20295;-84
2022/02/02 21:53:43;;;;;;;43.60;27.20;;;;;9.00;101716.00;;;;9607400;30;20280;-84
2022/02/02 21:58:44;;;;;;;42.70;27.63;;;;;9.00;101718.00;;;;9620434;30;20204;-84
2022/02/02 22:03:46;;;;;;;54.90;28.87;;;;;9.00;101712.00;;;;9621386;30;20598;-83
2022/02/02 22:08:48;;;;;;;43.53;26.53;;;;;9.00;101700.00;;;;9620274;30;20556;-84
2022/02/02 22:14:25;;;;;;;50.40;29.50;;;;;9.00;101695.00;;;;9630259;30;20249;-84
2022/02/02 22:19:19;;;;;;;41.50;26.60;;;;;9.00;101703.00;;;;9571977;30;20206;-84
2022/02/02 22:24:22;;;;;;;38.60;26.67;;;;;9.00;101700.00;;;;9585683;31;20206;-84
2022/02/02 22:29:24;;;;;;;41.87;25.40;;;;;8.90;101693.00;;;;9585397;30;20687;-84
2022/02/02 22:34:26;;;;;;;41.03;27.07;;;;;8.90;101691.00;;;;9585593;30;20305;-83
2022/02/02 22:39:28;;;;;;;41.03;25.03;;;;;8.90;101685.00;;;;9594126;30;20574;-83
2022/02/02 22:44:31;;;;;;;30.43;22.40;;;;;8.90;101679.00;;;;9614810;30;20224;-84
2022/02/02 22:49:35;;;;;;;32.27;20.83;;;;;8.90;101667.00;;;;9654329;30;20236;-83
2022/02/02 22:54:40;;;;;;;29.57;18.23;;;;;8.90;101680.00;;;;9655601;30;20279;-84
2022/02/02 22:59:45;;;;;;;25.27;16.70;;;;;8.80;101679.00;;;;9654665;30;20254;-84
2022/02/02 23:04:47;;;;;;;24.87;15.90;;;;;8.80;101678.00;;;;9611486;30;20829;-83
2022/02/02 23:09:51;;;;;;;23.03;14.37;;;;;8.80;101677.00;;;;9605562;30;20201;-84
2022/02/02 23:14:53;;;;;;;25.67;15.10;;;;;8.80;101678.00;;;;9618838;30;20252;-84
2022/02/02 23:19:55;;;;;;;28.63;14.03;;;;;8.80;101672.00;;;;9605461;30;20205;-84
2022/02/02 23:25:03;;;;;;;18.57;12.40;;;;;8.80;101677.00;;;;9632806;30;20293;-83
2022/02/02 23:30:10;;;;;;;18.03;12.03;;;;;8.70;101675.00;;;;9618405;30;20221;-84
2022/02/02 23:35:12;;;;;;;22.17;12.73;;;;;8.70;101674.00;;;;9618320;30;20209;-83
2022/02/02 23:40:14;;;;;;;17.30;10.90;;;;;8.70;101669.00;;;;9588381;30;20293;-84
2022/02/02 23:45:16;;;;;;;18.93;10.50;;;;;8.70;101678.00;;;;9607901;30;20217;-83
2022/02/02 23:50:18;;;;;;;20.47;10.93;;;;;8.60;101672.00;;;;9605175;30;20241;-83
2022/02/02 23:55:36;;;;;;;19.50;10.83;;;;;8.60;101685.00;;;;9605477;30;20283;-83
